Time;durP1;ratioP1;P1;durP2;ratioP2;P2;SDS_P1;SDS_P2;PMS_P1;PMS_P2;Temp;Humidity;BMP_temperature;BMP_pressure;BME280_temperature;BME280_humidity;BME280_pressure;Samples;Min_cycle;Max_cycle;Signal;HPM_P1;HPM_P2
2021/04/08 00:01:50;;;;;;;9.82;6.63;;;25.90;2201.60;;;;;;4806580;29;20486;-69
2021/04/08 00:04:15;;;;;;;9.43;6.30;;;25.80;2201.60;;;;;;4807225;29;20039;-70
2021/04/08 00:06:41;;;;;;;10.55;6.35;;;25.80;2201.60;;;;;;4806275;29;20031;-67
2021/04/08 00:09:10;;;;;;;9.23;6.68;;;25.80;2201.60;;;;;;4806915;29;20481;-71
2021/04/08 00:11:36;;;;;;;10.73;6.68;;;25.80;2201.60;;;;;;4807116;29;20069;-69
2021/04/08 00:14:02;;;;;;;11.68;6.75;;;25.80;2201.60;;;;;;4805910;29;20071;-69
2021/04/08 00:16:28;;;;;;;10.05;6.93;;;25.80;2201.60;;;;;;4806415;29;20064;-70
2021/04/08 00:18:53;;;;;;;11.80;7.50;;;25.80;2201.60;;;;;;4806843;29;20521;-69
2021/04/08 00:21:19;;;;;;;10.43;6.90;;;25.70;2201.60;;;;;;4806845;29;20043;-69
2021/04/08 00:23:45;;;;;;;9.02;6.47;;;25.70;2201.60;;;;;;4806551;29;20546;-65
2021/04/08 00:26:11;;;;;;;11.80;6.53;;;25.70;2201.60;;;;;;4806324;29;20038;-70
2021/04/08 00:28:36;;;;;;;8.63;6.30;;;25.70;2201.60;;;;;;4807245;29;20444;-70
2021/04/08 00:31:02;;;;;;;14.70;6.63;;;25.70;2201.60;;;;;;4806796;29;20062;-70
2021/04/08 00:33:28;;;;;;;11.05;5.97;;;25.70;2201.60;;;;;;4806322;29;20035;-71
2021/04/08 00:35:54;;;;;;;8.70;6.10;;;25.70;2201.60;;;;;;4806233;29;20110;-69
2021/04/08 00:38:20;;;;;;;10.85;6.82;;;25.70;2201.60;;;;;;4806063;29;20023;-70
2021/04/08 00:40:46;;;;;;;9.75;6.40;;;25.70;2201.60;;;;;;4806356;29;20046;-67
2021/04/08 00:43:12;;;;;;;8.00;6.07;;;25.80;2201.60;;;;;;4806731;29;20069;-69
2021/04/08 00:45:38;;;;;;;8.05;5.47;;;25.80;2201.60;;;;;;4806786;29;20456;-70
2021/04/08 00:48:05;;;;;;;8.80;5.82;;;25.80;2201.60;;;;;;4803816;29;20134;-67
2021/04/08 00:50:30;;;;;;;7.38;5.85;;;25.80;2201.60;;;;;;4806580;29;20106;-70
2021/04/08 00:52:58;;;;;;;10.30;6.13;;;25.80;2201.60;;;;;;4805967;29;20102;-70
2021/04/08 00:55:38;;;;;;;9.60;6.43;;;25.70;2201.60;;;;;;4806623;29;20126;-70
2021/04/08 00:58:05;;;;;;;7.82;5.78;;;25.70;2201.60;;;;;;4806015;29;20023;-70
2021/04/08 01:00:32;;;;;;;8.20;5.95;;;25.70;2201.60;;;;;;4806773;29;20046;-68
2021/04/08 01:02:58;;;;;;;9.13;6.35;;;25.70;2201.60;;;;;;4805493;29;20516;-70
2021/04/08 01:05:24;;;;;;;9.63;6.20;;;25.80;2201.60;;;;;;4806335;29;20496;-68
2021/04/08 01:07:50;;;;;;;10.05;6.15;;;25.60;2201.60;;;;;;4805325;29;20034;-69
2021/04/08 01:10:18;;;;;;;10.60;6.43;;;25.60;2201.60;;;;;;4807040;29;20058;-71
2021/04/08 01:12:43;;;;;;;10.23;6.25;;;25.60;2201.60;;;;;;4808497;29;20042;-67
2021/04/08 01:15:10;;;;;;;13.57;6.40;;;26.30;2201.60;;;;;;4805423;29;20155;-70
2021/04/08 01:18:02;;;;;;;9.98;6.55;;;25.60;2201.60;;;;;;4806318;29;20035;-69
2021/04/08 01:20:44;;;;;;;10.05;6.53;;;25.60;2201.60;;;;;;4804214;29;20035;-69
2021/04/08 01:23:34;;;;;;;11.85;7.28;;;0.90;2201.60;;;;;;4801238;29;20393;-68
2021/04/08 01:26:18;;;;;;;11.98;6.82;;;0.90;2201.60;;;;;;4805310;29;20107;-68
2021/04/08 01:28:52;;;;;;;12.45;7.07;;;0.90;2201.60;;;;;;4804552;29;20031;-70
2021/04/08 01:31:19;;;;;;;12.00;6.72;;;0.90;2201.60;;;;;;4805804;29;20034;-68
2021/04/08 01:33:53;;;;;;;17.48;6.78;;;0.90;2201.60;;;;;;4805402;29;20480;-70
2021/04/08 01:36:32;;;;;;;15.32;6.82;;;0.80;2201.60;;;;;;4800548;29;20041;-70
2021/04/08 01:39:10;;;;;;;9.18;6.40;;;0.80;2201.60;;;;;;4805167;29;20114;-70
2021/04/08 01:41:38;;;;;;;10.77;6.95;;;0.80;2201.60;;;;;;4805557;29;20039;-69
2021/04/08 01:44:06;;;;;;;11.93;7.32;;;0.80;2201.60;;;;;;4801201;29;20397;-68
2021/04/08 01:46:35;;;;;;;10.85;6.60;;;0.80;2201.60;;;;;;4804982;29;20031;-68
2021/04/08 01:49:02;;;;;;;8.07;6.30;;;0.80;2201.60;;;;;;4791233;29;20581;-70
2021/04/08 01:51:30;;;;;;;10.95;6.90;;;25.60;2201.60;;;;;;4804328;29;20035;-69
2021/04/08 01:54:02;;;;;;;10.20;7.10;;;0.90;2201.60;;;;;;4805626;29;20083;-70
2021/04/08 01:56:41;;;;;;;8.57;6.43;;;0.80;2201.60;;;;;;4804973;29;20461;-70
2021/04/08 01:59:07;;;;;;;11.35;7.15;;;0.80;2201.60;;;;;;4805122;29;20039;-71
2021/04/08 02:01:35;;;;;;;11.73;7.80;;;0.80;2201.60;;;;;;4804586;29;20035;-70
2021/04/08 02:04:03;;;;;;;12.60;7.57;;;0.80;2201.60;;;;;;4804876;29;20063;-71
2021/04/08 02:06:29;;;;;;;10.98;6.97;;;0.80;2201.60;;;;;;4805239;29;20023;-68
2021/04/08 02:08:56;;;;;;;9.80;6.57;;;0.80;2201.60;;;;;;4804379;29;20034;-69
2021/04/08 02:11:25;;;;;;;10.57;6.60;;;0.70;2201.60;;;;;;4802754;29;20550;-68
2021/04/08 02:13:51;;;;;;;10.63;6.55;;;0.70;2201.60;;;;;;4804923;29;20169;-70
2021/04/08 02:16:19;;;;;;;11.57;6.82;;;0.60;2201.60;;;;;;4805085;29;20439;-69
2021/04/08 02:18:47;;;;;;;10.43;6.78;;;0.60;2201.60;;;;;;4804692;29;20132;-67
2021/04/08 02:21:14;;;;;;;12.15;6.88;;;0.50;2201.60;;;;;;4803983;29;20107;-71
2021/04/08 02:23:42;;;;;;;14.75;8.68;;;0.50;2201.60;;;;;;4788341;29;20493;-70
2021/04/08 02:26:10;;;;;;;13.25;7.57;;;0.50;2201.60;;;;;;4804039;29;20383;-69
2021/04/08 02:28:38;;;;;;;17.13;7.40;;;0.50;2201.60;;;;;;4804640;29;20035;-67
2021/04/08 02:31:04;;;;;;;12.68;7.60;;;0.50;2201.60;;;;;;4804842;29;20055;-70
2021/04/08 02:33:31;;;;;;;12.98;7.18;;;0.50;2201.60;;;;;;4804826;29;20031;-71
2021/04/08 02:35:59;;;;;;;17.67;7.90;;;0.40;2201.60;;;;;;4804485;29;20030;-66
2021/04/08 02:38:30;;;;;;;17.88;7.47;;;0.40;2201.60;;;;;;4809733;29;20524;-69
2021/04/08 02:40:59;;;;;;;13.68;6.90;;;0.40;2201.60;;;;;;4810325;29;20458;-70
2021/04/08 02:43:25;;;;;;;16.98;7.78;;;0.40;2201.60;;;;;;4810733;29;20099;-70
2021/04/08 02:45:51;;;;;;;15.60;8.05;;;0.40;2201.60;;;;;;4810565;29;20030;-69
2021/04/08 02:48:18;;;;;;;20.27;9.65;;;0.40;2201.60;;;;;;4810313;29;20464;-68
2021/04/08 02:50:50;;;;;;;16.63;9.60;;;0.40;2201.60;;;;;;4810665;29;20035;-71
2021/04/08 02:53:30;;;;;;;15.32;8.75;;;0.30;2201.60;;;;;;4810115;29;20106;-71
2021/04/08 02:55:58;;;;;;;13.40;8.75;;;0.40;2201.60;;;;;;4810178;29;20111;-69
2021/04/08 02:58:25;;;;;;;17.63;7.72;;;0.40;2201.60;;;;;;4810616;29;20034;-70
2021/04/08 03:00:58;;;;;;;12.15;6.82;;;0.40;2201.60;;;;;;4812428;29;20046;-69
2021/04/08 03:03:33;;;;;;;9.07;6.22;;;0.40;2201.60;;;;;;4804257;29;20071;-68
2021/04/08 03:06:04;;;;;;;12.50;6.88;;;0.50;2201.60;;;;;;4804193;29;20042;-69
2021/04/08 03:08:31;;;;;;;10.73;5.78;;;0.40;2201.60;;;;;;4798141;29;20027;-72
2021/04/08 03:11:03;;;;;;;11.73;6.40;;;0.50;2201.60;;;;;;4810372;29;20027;-70
2021/04/08 03:13:33;;;;;;;12.60;6.30;;;0.40;2201.60;;;;;;4811001;29;20114;-71
2021/04/08 03:16:05;;;;;;;10.85;6.13;;;0.40;2201.60;;;;;;4809038;29;20031;-71
2021/04/08 03:18:32;;;;;;;8.63;5.72;;;0.40;2201.60;;;;;;4807034;29;20034;-71
2021/04/08 03:20:58;;;;;;;10.75;6.18;;;0.40;2201.60;;;;;;4810124;29;20489;-70
2021/04/08 03:23:25;;;;;;;11.90;6.00;;;0.40;2201.60;;;;;;4793671;29;20440;-70
2021/04/08 03:25:53;;;;;;;10.90;6.15;;;0.40;2201.60;;;;;;4810128;29;20046;-69
2021/04/08 03:28:20;;;;;;;11.43;5.97;;;0.40;2201.60;;;;;;4809888;29;20034;-68
2021/04/08 03:30:47;;;;;;;10.88;6.65;;;0.40;2201.60;;;;;;4810282;29;20091;-69
2021/04/08 03:33:14;;;;;;;9.95;5.93;;;0.40;2201.60;;;;;;4810366;29;20058;-69
2021/04/08 03:35:46;;;;;;;11.35;6.47;;;0.40;2201.60;;;;;;4810392;29;20445;-69
2021/04/08 03:38:12;;;;;;;11.43;6.30;;;0.40;2201.60;;;;;;4810012;29;20482;-69
2021/04/08 03:40:38;;;;;;;12.68;5.85;;;0.40;2201.60;;;;;;4810309;29;20042;-67
2021/04/08 03:43:04;;;;;;;11.35;6.15;;;0.40;2201.60;;;;;;4810341;29;20034;-70
2021/04/08 03:45:30;;;;;;;13.40;5.60;;;0.30;2201.60;;;;;;4810629;29;20076;-70
2021/04/08 03:48:00;;;;;;;12.10;6.05;;;0.30;2201.60;;;;;;4808644;29;20455;-71
2021/04/08 03:50:27;;;;;;;13.43;6.25;;;0.30;2201.60;;;;;;4807386;29;20098;-71
2021/04/08 03:52:53;;;;;;;12.63;6.18;;;0.30;2201.60;;;;;;4807468;29;20067;-71
2021/04/08 03:55:21;;;;;;;12.52;6.05;;;0.30;2201.60;;;;;;4809264;29;20070;-73
2021/04/08 03:57:47;;;;;;;12.40;6.22;;;0.30;2201.60;;;;;;4808593;29;20581;-73
2021/04/08 04:00:17;;;;;;;16.30;6.60;;;0.20;2201.60;;;;;;4805399;29;20133;-69
2021/04/08 04:02:43;;;;;;;11.15;6.28;;;0.20;2201.60;;;;;;4806572;29;20051;-69
2021/04/08 04:05:10;;;;;;;13.38;6.38;;;0.30;2201.60;;;;;;4807253;29;20034;-72
2021/04/08 04:07:37;;;;;;;10.85;5.97;;;0.30;2201.60;;;;;;4807058;29;20062;-70
2021/04/08 04:10:04;;;;;;;13.07;6.13;;;0.40;2201.60;;;;;;4806345;29;20402;-70
2021/04/08 04:12:33;;;;;;;10.65;6.43;;;0.40;2201.60;;;;;;4806601;29;20039;-70
2021/04/08 04:15:02;;;;;;;11.68;6.43;;;0.40;2201.60;;;;;;4805846;29;20512;-70
2021/04/08 04:17:29;;;;;;;8.50;5.40;;;0.40;2201.60;;;;;;4806157;29;20481;-68
2021/04/08 04:19:56;;;;;;;9.35;5.40;;;0.50;2201.60;;;;;;4802287;29;20058;-67
2021/04/08 04:22:22;;;;;;;9.40;5.25;;;25.90;2201.60;;;;;;4812825;29;20038;-66
2021/04/08 04:24:48;;;;;;;11.63;5.40;;;0.60;2201.60;;;;;;4790531;29;20045;-68
2021/04/08 04:27:14;;;;;;;11.20;6.13;;;0.70;2201.60;;;;;;4805523;29;20402;-67
2021/04/08 04:29:40;;;;;;;10.57;5.30;;;0.70;2201.60;;;;;;4807014;29;20022;-67
2021/04/08 04:32:09;;;;;;;12.63;7.20;;;0.80;2201.60;;;;;;4805472;29;20043;-67
2021/04/08 04:34:35;;;;;;;12.23;7.22;;;0.90;2201.60;;;;;;4806723;29;20034;-68
2021/04/08 04:37:01;;;;;;;16.63;7.97;;;0.90;2201.60;;;;;;4805595;29;20512;-68
2021/04/08 04:39:27;;;;;;;7.97;5.10;;;25.90;2201.60;;;;;;4806362;29;20031;-69
2021/04/08 04:41:53;;;;;;;11.02;5.65;;;26.30;2201.60;;;;;;4812047;29;20047;-67
2021/04/08 04:44:18;;;;;;;10.38;5.20;;;51.30;2227.20;;;;;;4813283;29;20485;-68
2021/04/08 04:46:44;;;;;;;11.50;5.20;;;51.60;2227.20;;;;;;4811477;29;20488;-68
2021/04/08 04:49:10;;;;;;;9.02;5.78;;;76.80;2227.20;;;;;;4821868;29;20050;-78
2021/04/08 04:51:35;;;;;;;9.40;5.60;;;76.80;2227.20;;;;;;4819768;29;20027;-80
2021/04/08 04:54:01;;;;;;;8.77;5.38;;;77.10;2227.20;;;;;;4805404;29;20042;-70
2021/04/08 04:56:27;;;;;;;14.48;4.90;;;77.40;2227.20;;;;;;4804999;29;20397;-69
2021/04/08 04:58:53;;;;;;;16.02;5.00;;;77.70;2227.20;;;;;;4804990;29;20106;-69
2021/04/08 05:01:22;;;;;;;11.35;5.80;;;102.60;2227.20;;;;;;4805904;29;20115;-75
2021/04/08 05:03:47;;;;;;;10.13;6.35;;;103.00;2227.20;;;;;;4805852;29;20110;-76
2021/04/08 05:06:13;;;;;;;8.70;7.05;;;128.50;2252.80;;;;;;4805858;29;20455;-75
2021/04/08 05:08:39;;;;;;;9.70;6.82;;;;;;;;;;4806207;29;20023;-69
2021/04/08 05:11:05;;;;;;;9.02;7.05;;;;;;;;;;4806091;29;20030;-67
2021/04/08 05:13:31;;;;;;;8.63;6.47;;;;;;;;;;4806396;29;20480;-68
2021/04/08 05:15:57;;;;;;;12.07;7.22;;;;;;;;;;4806263;29;20038;-74
2021/04/08 05:18:27;;;;;;;12.23;7.72;;;;;;;;;;4805769;29;20126;-71
2021/04/08 05:20:53;;;;;;;11.48;8.38;;;;;;;;;;4805621;29;20109;-73
2021/04/08 05:23:19;;;;;;;13.77;8.13;;;;;;;;;;4806258;29;20530;-65
2021/04/08 05:25:45;;;;;;;20.23;10.98;;;;;;;;;;4805228;29;20033;-70
2021/04/08 05:28:12;;;;;;;15.20;10.50;;;;;;;;;;4806169;29;20062;-70
2021/04/08 05:30:38;;;;;;;18.27;8.80;;;;;;;;;;4805983;29;20837;-69
2021/04/08 05:33:04;;;;;;;12.15;7.50;;;;;;;;;;4804992;29;20030;-68
2021/04/08 05:35:30;;;;;;;11.60;6.57;;;;;;;;;;4804947;29;20037;-67
2021/04/08 05:37:56;;;;;;;11.50;6.10;;;;;;;;;;4804835;29;20482;-67
2021/04/08 05:40:22;;;;;;;18.88;8.43;;;;;;;;;;4805705;29;20569;-67
2021/04/08 05:42:48;;;;;;;15.40;8.95;;;;;;;;;;4804980;29;20039;-69
2021/04/08 05:45:19;;;;;;;15.85;8.40;;;;;;;;;;4805950;29;20480;-66
2021/04/08 05:47:45;;;;;;;11.35;7.10;;;;;;;;;;4804705;29;20080;-69
2021/04/08 05:50:12;;;;;;;11.52;7.28;;;;;;;;;;4809675;29;20031;-71
2021/04/08 05:52:38;;;;;;;11.95;7.78;;;;;;;;;;4804554;29;20042;-72
2021/04/08 05:55:05;;;;;;;16.92;8.18;;;;;;;;;;4805191;29;20041;-68
2021/04/08 05:57:31;;;;;;;22.55;13.15;;;;;;;;;;4804663;29;20031;-67
2021/04/08 05:59:57;;;;;;;33.22;24.27;;;;;;;;;;4804875;29;20052;-68
2021/04/08 06:02:23;;;;;;;26.88;21.63;;;;;;;;;;4805334;29;20493;-69
2021/04/08 06:04:50;;;;;;;16.17;12.50;;;410.10;1100.80;;;;;;4804696;29;20374;-67
2021/04/08 06:07:15;;;;;;;11.88;8.15;;;435.50;1049.60;;;;;;4804564;29;20027;-67
2021/04/08 06:09:42;;;;;;;10.18;6.93;;;435.20;1075.20;;;;;;4804948;29;20027;-67
2021/04/08 06:12:08;;;;;;;9.23;6.40;;;410.10;1100.80;;;;;;4803943;29;20531;-69
2021/04/08 06:14:35;;;;;;;9.48;5.90;;;410.50;1024.00;;;;;;4788557;29;20046;-69
2021/04/08 06:17:01;;;;;;;12.48;5.90;;;;;;;;;;4803556;29;20058;-70
2021/04/08 06:19:27;;;;;;;11.02;5.78;;;;;;;;;;4806202;29;20107;-70
2021/04/08 06:21:54;;;;;;;13.02;5.95;;;;;;;;;;4803803;29;20031;-70
2021/04/08 06:24:20;;;;;;;10.57;5.50;;;;;;;;;;4805114;29;20389;-70
2021/04/08 06:26:46;;;;;;;9.10;5.68;;;;;;;;;;4804163;29;20066;-71
2021/04/08 06:29:12;;;;;;;11.40;7.60;;;;;;;;;;4804540;29;20039;-71
2021/04/08 06:31:38;;;;;;;12.95;9.20;;;384.60;1024.00;;;;;;4803666;29;20109;-67
2021/04/08 06:34:03;;;;;;;13.20;8.90;;;384.40;1228.80;;;;;;4804919;29;20110;-67
2021/04/08 06:36:29;;;;;;;12.73;8.35;;;384.80;1075.20;;;;;;4804032;29;20034;-68
2021/04/08 06:38:55;;;;;;;15.15;9.18;;;409.80;1049.60;;;;;;4804702;29;20027;-68
2021/04/08 06:41:20;;;;;;;24.70;12.27;;;435.40;1049.60;;;;;;4808252;29;20035;-68
2021/04/08 06:43:47;;;;;;;14.63;8.68;;;;;;;;;;4804754;29;20362;-69
2021/04/08 06:46:16;;;;;;;24.98;15.85;;;461.60;947.20;;;;;;4804180;29;20439;-68
2021/04/08 06:48:44;;;;;;;14.63;8.57;;;;;;;;;;4803869;29;20055;-68
2021/04/08 06:51:14;;;;;;;10.43;6.13;;;461.50;896.00;;;;;;4803443;29;20026;-68
2021/04/08 06:53:40;;;;;;;11.40;5.43;;;;;;;;;;4803923;29;20034;-69
2021/04/08 06:56:10;;;;;;;7.13;5.50;;;461.70;870.40;;;;;;4803476;29;20032;-69
2021/04/08 06:58:37;;;;;;;14.30;10.07;;;461.60;870.40;;;;;;4803514;29;20081;-67
2021/04/08 07:01:12;;;;;;;11.55;8.63;;;;;;;;;;4808117;29;20141;-68
2021/04/08 07:03:39;;;;;;;12.43;8.80;;;461.50;870.40;;;;;;4804742;29;20018;-68
2021/04/08 07:06:05;;;;;;;9.63;6.78;;;461.20;921.60;;;;;;4803744;29;20039;-67
2021/04/08 07:08:34;;;;;;;8.10;5.30;;;461.10;870.40;;;;;;4804269;29;20079;-70
2021/04/08 07:11:00;;;;;;;11.35;7.68;;;;;;;;;;4802628;29;20370;-69
2021/04/08 07:13:30;;;;;;;11.88;8.20;;;461.40;844.80;;;;;;4788016;29;20516;-70
2021/04/08 07:15:57;;;;;;;13.77;9.43;;;;;;;;;;4804192;29;20034;-68
2021/04/08 07:18:27;;;;;;;9.98;4.63;;;486.40;844.80;;;;;;4804074;29;20055;-69
2021/04/08 07:20:54;;;;;;;11.77;5.75;;;;;;;;;;4800089;29;20393;-69
2021/04/08 07:23:20;;;;;;;10.77;6.70;;;;;;;;;;4810067;29;20489;-68
2021/04/08 07:26:11;;;;;;;7.82;5.57;;;;;;;;;;4811355;29;20481;-68
2021/04/08 07:28:43;;;;;;;8.10;4.95;;;;;;;;;;4755446;30;20040;-69
2021/04/08 07:31:26;;;;;;;9.25;5.55;;;;;;;;;;4750119;30;20086;-69
2021/04/08 07:33:54;;;;;;;9.45;5.88;;;;;;;;;;4751792;30;20048;-72
2021/04/08 07:36:33;;;;;;;15.63;8.70;;;;;;;;;;4751756;30;20036;-71
2021/04/08 07:39:00;;;;;;;13.57;8.10;;;;;;;;;;4751517;30;20052;-68
2021/04/08 07:41:37;;;;;;;9.13;6.03;;;;;;;;;;4750374;30;20139;-68
2021/04/08 07:44:03;;;;;;;10.73;5.72;;;;;;;;;;4753844;30;20056;-69
2021/04/08 07:46:30;;;;;;;12.48;7.93;;;;;;;;;;4751323;30;20036;-69
2021/04/08 07:48:56;;;;;;;8.05;5.40;;;;;;;;;;4749234;30;20064;-69
2021/04/08 07:51:32;;;;;;;12.52;7.05;;;;;;;;;;4750296;30;20056;-66
2021/04/08 07:54:08;;;;;;;7.55;5.05;;;;;;;;;;4749950;30;20028;-66
2021/04/08 07:56:34;;;;;;;20.88;11.43;;;;;;;;;;4751206;30;20507;-67
2021/04/08 07:59:17;;;;;;;9.57;5.82;;;;;;;;;;4750761;30;20598;-66
2021/04/08 08:01:46;;;;;;;13.13;6.85;;;;;;;;;;4749839;30;20499;-66
2021/04/08 08:04:25;;;;;;;6.75;4.80;;;;;;;;;;4751099;30;20040;-66
2021/04/08 08:06:54;;;;;;;10.07;5.70;;;;;;;;;;4790552;29;20513;-65
2021/04/08 08:09:25;;;;;;;12.82;6.45;;;;;;;;;;4805924;29;20087;-66
2021/04/08 08:11:52;;;;;;;12.30;6.50;;;384.50;896.00;;;;;;4806893;29;20117;-66
2021/04/08 08:14:35;;;;;;;5.95;4.72;;;384.20;1024.00;;;;;;4805794;29;20031;-68
2021/04/08 08:17:05;;;;;;;8.20;4.70;;;384.30;921.60;;;;;;4805771;29;20054;-68
2021/04/08 08:19:32;;;;;;;7.50;4.82;;;384.30;870.40;;;;;;4790231;29;20042;-65
2021/04/08 08:21:59;;;;;;;8.35;5.40;;;384.40;921.60;;;;;;4806664;29;20511;-67
2021/04/08 08:24:25;;;;;;;9.30;4.75;;;384.50;921.60;;;;;;4805933;29;20023;-64
2021/04/08 08:26:52;;;;;;;8.90;5.05;;;384.30;921.60;;;;;;4806605;29;20398;-65
2021/04/08 08:29:23;;;;;;;7.97;4.30;;;359.30;1049.60;;;;;;4806777;29;20042;-69
2021/04/08 08:32:03;;;;;;;8.52;5.53;;;384.00;921.60;;;;;;4806598;29;20058;-69
2021/04/08 08:34:37;;;;;;;11.75;4.80;;;384.20;870.40;;;;;;4805779;29;20041;-69
2021/04/08 08:37:09;;;;;;;13.38;6.72;;;359.30;819.20;;;;;;4804871;29;20450;-70
2021/04/08 08:39:36;;;;;;;11.82;6.55;;;;;;;;;;4805747;29;20038;-69
2021/04/08 08:42:05;;;;;;;11.27;7.35;;;358.90;896.00;;;;;;4805827;29;20490;-69
2021/04/08 08:44:32;;;;;;;11.73;7.72;;;358.80;1100.80;;;;;;4806915;29;20042;-70
2021/04/08 08:47:25;;;;;;;7.28;4.45;;;358.40;947.20;;;;;;4810387;29;20046;-69
2021/04/08 08:49:58;;;;;;;6.73;4.40;;;358.40;947.20;;;;;;4806351;29;20173;-71
2021/04/08 08:52:35;;;;;;;6.07;4.05;;;333.70;972.80;;;;;;4799391;29;20498;-69
2021/04/08 08:55:23;;;;;;;9.35;4.70;;;333.50;972.80;;;;;;4805957;29;20486;-68
2021/04/08 08:57:52;;;;;;;6.43;4.00;;;333.30;998.40;;;;;;4805302;29;20045;-69
2021/04/08 09:00:18;;;;;;;8.90;4.40;;;333.20;1177.60;;;;;;4805403;29;20035;-68
2021/04/08 09:02:45;;;;;;;9.85;4.47;;;333.10;1024.00;;;;;;4804345;29;20046;-66
2021/04/08 09:05:17;;;;;;;7.82;4.70;;;332.80;1024.00;;;;;;4802214;29;20038;-67
2021/04/08 09:07:45;;;;;;;11.80;6.50;;;;;;;;;;4801519;29;20034;-72
2021/04/08 09:10:12;;;;;;;12.98;6.07;;;307.50;1049.60;;;;;;4792340;29;20065;-71
2021/04/08 09:12:39;;;;;;;15.25;8.02;;;307.20;1075.20;;;;;;4802184;29;20038;-75
2021/04/08 09:15:07;;;;;;;13.00;7.60;;;282.10;1100.80;;;;;;4807435;29;20106;-69
2021/04/08 09:17:39;;;;;;;12.13;7.10;;;;;;;;;;4806107;29;20114;-69
2021/04/08 09:20:10;;;;;;;13.90;7.13;;;281.80;1126.40;;;;;;4804988;29;20050;-69
2021/04/08 09:22:53;;;;;;;14.57;7.35;;;281.60;1152.00;;;;;;4780923;29;20589;-70
2021/04/08 09:25:27;;;;;;;13.13;8.02;;;281.60;1203.20;;;;;;4790888;29;20098;-68
2021/04/08 09:27:56;;;;;;;9.55;5.57;;;256.70;1152.00;;;;;;4791628;29;20051;-67
2021/04/08 09:33:15;;;;;;;26.52;11.63;;;256.70;1126.40;;;;;;4801264;29;20120;-71
2021/04/08 09:35:41;;;;;;;16.30;6.72;;;256.90;1126.40;;;;;;4805286;29;20026;-67
2021/04/08 09:38:06;;;;;;;22.63;8.50;;;256.90;972.80;;;;;;4804987;29;20385;-70
2021/04/08 09:40:42;;;;;;;21.23;8.40;;;281.60;1049.60;;;;;;4805288;29;20475;-69
2021/04/08 09:43:19;;;;;;;7.28;4.15;;;282.10;972.80;;;;;;4805449;29;20030;-66
2021/04/08 09:45:56;;;;;;;10.18;5.63;;;282.20;972.80;;;;;;4804230;29;20520;-69
2021/04/08 09:48:27;;;;;;;5.57;3.80;;;282.50;947.20;;;;;;4804212;29;20055;-68
2021/04/08 09:50:58;;;;;;;7.65;5.00;;;307.40;972.80;;;;;;4805360;29;20027;-66
2021/04/08 09:53:24;;;;;;;5.25;3.65;;;307.40;998.40;;;;;;4803861;29;20027;-68
2021/04/08 09:55:53;;;;;;;8.15;4.80;;;307.30;972.80;;;;;;4788821;29;20066;-67
2021/04/08 09:58:28;;;;;;;8.90;4.18;;;282.50;972.80;;;;;;4803382;29;20031;-67
2021/04/08 10:00:57;;;;;;;7.72;4.93;;;307.40;998.40;;;;;;4795967;29;20067;-68
2021/04/08 10:03:31;;;;;;;10.80;4.40;;;307.40;1024.00;;;;;;4805160;29;20034;-81
2021/04/08 10:05:57;;;;;;;7.03;4.13;;;307.30;998.40;;;;;;4804406;29;20058;-67
2021/04/08 10:08:25;;;;;;;6.18;4.07;;;307.20;998.40;;;;;;4799794;29;20186;-71
2021/04/08 10:10:51;;;;;;;12.57;4.18;;;282.50;972.80;;;;;;4846672;24;20140;-72
2021/04/08 10:13:18;;;;;;;7.15;4.45;;;282.30;1024.00;;;;;;4870950;29;20108;-68
2021/04/08 10:15:44;;;;;;;9.35;4.80;;;282.20;998.40;;;;;;4875093;29;20107;-69
2021/04/08 10:18:15;;;;;;;9.60;5.90;;;282.00;1024.00;;;;;;4872712;29;20032;-69
2021/04/08 10:20:42;;;;;;;6.85;3.83;;;281.80;998.40;;;;;;4870485;29;20033;-68
2021/04/08 10:23:08;;;;;;;6.38;3.80;;;281.80;972.80;;;;;;4869512;29;20044;-67
2021/04/08 10:25:34;;;;;;;8.93;3.38;;;281.90;947.20;;;;;;4872272;29;20021;-67
2021/04/08 10:28:01;;;;;;;7.00;3.30;;;281.80;998.40;;;;;;4871908;29;20508;-68
2021/04/08 10:30:27;;;;;;;7.00;3.83;;;281.70;947.20;;;;;;4871272;29;20028;-68
2021/04/08 10:32:54;;;;;;;7.65;3.90;;;256.90;972.80;;;;;;4873739;29;20110;-68
2021/04/08 10:35:26;;;;;;;6.97;3.22;;;256.70;972.80;;;;;;4868610;29;20025;-68
2021/04/08 10:37:58;;;;;;;6.15;3.08;;;256.90;972.80;;;;;;4870869;29;20029;-68
2021/04/08 10:40:25;;;;;;;9.80;4.35;;;256.70;972.80;;;;;;4871928;29;20085;-70
2021/04/08 10:42:51;;;;;;;7.70;3.78;;;256.90;947.20;;;;;;4875144;29;20052;-69
2021/04/08 10:45:17;;;;;;;5.40;3.83;;;256.80;947.20;;;;;;4872658;29;20102;-70
2021/04/08 10:47:43;;;;;;;7.68;5.47;;;281.60;998.40;;;;;;4865431;29;20404;-69
2021/04/08 10:50:09;;;;;;;6.22;3.60;;;256.80;998.40;;;;;;4859562;29;20032;-67
2021/04/08 10:52:37;;;;;;;6.70;4.75;;;281.60;1024.00;;;;;;4874563;29;20044;-69
2021/04/08 10:55:14;;;;;;;5.63;3.95;;;281.70;1075.20;;;;;;4869237;29;20025;-68
2021/04/08 10:57:44;;;;;;;7.82;3.80;;;281.70;1024.00;;;;;;4871531;29;20053;-69
2021/04/08 11:00:12;;;;;;;10.23;4.10;;;281.60;998.40;;;;;;4877843;29;20036;-69
2021/04/08 11:02:43;;;;;;;5.38;3.55;;;281.60;998.40;;;;;;4879824;29;20392;-68
2021/04/08 11:05:24;;;;;;;7.65;3.78;;;281.80;998.40;;;;;;4872320;29;20053;-69
2021/04/08 11:07:52;;;;;;;7.68;4.20;;;282.10;998.40;;;;;;4868936;29;20033;-68
2021/04/08 11:10:21;;;;;;;8.07;4.03;;;282.20;998.40;;;;;;4869848;29;20057;-67
2021/04/08 11:12:48;;;;;;;6.18;3.50;;;282.00;998.40;;;;;;4880531;29;20449;-70
2021/04/08 11:15:15;;;;;;;8.45;5.35;;;281.90;998.40;;;;;;4860655;29;20101;-70
2021/04/08 11:18:09;;;;;;;9.32;5.28;;;282.20;998.40;;;;;;4875351;29;20365;-73
2021/04/08 11:20:39;;;;;;;9.98;5.43;;;307.20;1024.00;;;;;;4876232;29;20387;-70
2021/04/08 11:23:07;;;;;;;7.93;5.13;;;282.40;998.40;;;;;;4879160;29;20053;-69
2021/04/08 11:25:35;;;;;;;9.32;6.00;;;282.40;998.40;;;;;;4871466;29;20105;-69
2021/04/08 11:28:02;;;;;;;11.40;5.40;;;307.30;1049.60;;;;;;4873685;29;20076;-69
2021/04/08 11:30:34;;;;;;;8.40;4.65;;;307.30;998.40;;;;;;4874455;29;20025;-68
2021/04/08 11:33:01;;;;;;;6.90;4.13;;;282.40;972.80;;;;;;4881444;29;20025;-70
2021/04/08 11:35:38;;;;;;;8.10;5.18;;;282.10;998.40;;;;;;4873255;29;20053;-69
2021/04/08 11:38:16;;;;;;;10.18;4.95;;;282.00;998.40;;;;;;4876583;29;20055;-68
2021/04/08 11:40:47;;;;;;;7.05;4.80;;;282.20;1049.60;;;;;;4872359;29;20847;-68
2021/04/08 11:43:25;;;;;;;5.60;3.45;;;282.30;998.40;;;;;;4880940;29;20526;-68
2021/04/08 11:46:00;;;;;;;6.25;3.60;;;282.20;998.40;;;;;;4881379;29;20065;-67
2021/04/08 11:48:38;;;;;;;12.07;4.70;;;282.30;998.40;;;;;;4879867;29;20063;-68
2021/04/08 11:51:06;;;;;;;6.25;3.83;;;282.20;1024.00;;;;;;4879673;29;20033;-68
2021/04/08 11:53:34;;;;;;;7.60;5.07;;;282.20;1024.00;;;;;;4877822;29;20060;-70
2021/04/08 11:56:00;;;;;;;5.68;3.97;;;282.30;1024.00;;;;;;4879147;29;20559;-71
2021/04/08 11:58:31;;;;;;;6.68;4.32;;;282.20;1024.00;;;;;;4875454;29;20041;-68
2021/04/08 12:01:17;;;;;;;8.90;3.72;;;282.10;1024.00;;;;;;4876578;29;20097;-66
2021/04/08 12:03:48;;;;;;;7.88;4.20;;;282.50;998.40;;;;;;4874191;29;20399;-70
2021/04/08 12:06:16;;;;;;;5.40;4.00;;;307.60;998.40;;;;;;4875178;29;20029;-70
2021/04/08 12:08:55;;;;;;;7.32;5.22;;;307.80;947.20;;;;;;4872627;29;20488;-69
2021/04/08 12:11:22;;;;;;;7.70;4.90;;;307.90;972.80;;;;;;4865871;29;20525;-70
2021/04/08 12:14:01;;;;;;;9.27;5.40;;;307.40;972.80;;;;;;4876806;29;20037;-69
2021/04/08 12:16:28;;;;;;;7.30;4.22;;;307.30;972.80;;;;;;4871952;29;20021;-74
2021/04/08 12:18:54;;;;;;;12.13;5.28;;;307.20;972.80;;;;;;4878484;29;20487;-69
2021/04/08 12:21:21;;;;;;;7.38;3.95;;;307.30;998.40;;;;;;4877502;29;20131;-70
2021/04/08 12:23:48;;;;;;;6.28;3.80;;;282.50;972.80;;;;;;4878089;29;20161;-69
2021/04/08 12:26:14;;;;;;;13.82;7.15;;;282.50;947.20;;;;;;4870037;29;20141;-69
2021/04/08 12:28:41;;;;;;;14.10;7.95;;;307.60;972.80;;;;;;4870919;29;20030;-67
2021/04/08 12:31:09;;;;;;;10.93;5.07;;;307.60;972.80;;;;;;4877831;29;20036;-70
2021/04/08 12:33:39;;;;;;;16.05;7.90;;;307.40;972.80;;;;;;4880472;29;20037;-67
2021/04/08 12:36:08;;;;;;;18.70;8.45;;;307.50;998.40;;;;;;4867536;29;20042;-69
2021/04/08 12:38:34;;;;;;;14.27;6.43;;;307.60;1024.00;;;;;;4864916;29;20029;-67
2021/04/08 12:41:01;;;;;;;18.20;7.97;;;307.30;998.40;;;;;;4868830;29;20049;-66
2021/04/08 12:43:27;;;;;;;28.60;11.35;;;282.30;972.80;;;;;;4872477;29;20033;-67
2021/04/08 12:45:53;;;;;;;18.38;7.60;;;282.40;972.80;;;;;;4875515;29;20440;-67
2021/04/08 12:48:20;;;;;;;6.93;4.30;;;282.40;998.40;;;;;;4872702;29;20044;-68
2021/04/08 12:50:49;;;;;;;6.05;3.55;;;282.30;972.80;;;;;;4860817;29;20025;-68
2021/04/08 12:53:16;;;;;;;7.05;4.00;;;282.40;972.80;;;;;;4877152;29;20081;-68
2021/04/08 12:55:42;;;;;;;4.78;3.08;;;282.50;972.80;;;;;;4873010;29;20030;-70